createdAt,value
2018-02-12T00:00:30.232Z,0
2018-02-12T00:01:30.481Z,0
2018-02-12T00:02:30.984Z,0
2018-02-12T00:03:30.761Z,0
2018-02-12T00:04:31.022Z,0
2018-02-12T00:05:30.306Z,0
2018-02-12T00:06:30.547Z,0
2018-02-12T00:07:31.243Z,0
2018-02-12T00:08:30.825Z,0
2018-02-12T00:09:30.551Z,0
2018-02-12T00:11:46.155Z,0
2018-02-12T00:12:31.067Z,0
2018-02-12T00:13:30.911Z,0
2018-02-12T00:14:30.905Z,0
2018-02-12T00:15:30.913Z,0
2018-02-12T00:16:30.419Z,0
2018-02-12T00:17:30.693Z,0
2018-02-12T00:18:30.466Z,0
2018-02-12T00:19:30.466Z,0
2018-02-12T00:20:30.739Z,0
2018-02-12T00:21:31.232Z,0
2018-02-12T00:22:31.244Z,0
2018-02-12T00:23:30.776Z,0
2018-02-12T00:24:31.044Z,0
2018-02-12T00:25:30.536Z,0
2018-02-12T00:26:31.331Z,0
2018-02-12T00:27:31.055Z,0
2018-02-12T00:28:30.826Z,0
2018-02-12T00:29:30.829Z,0
2018-02-12T00:30:30.844Z,0
2018-02-12T00:31:31.109Z,0
2018-02-12T00:32:30.365Z,0
2018-02-12T00:33:30.892Z,0
2018-02-12T00:34:31.413Z,0
2018-02-12T00:35:31.158Z,0
2018-02-12T00:36:30.916Z,0
2018-02-12T00:37:31.179Z,0
2018-02-12T00:38:30.963Z,0
2018-02-12T00:39:31.207Z,0
2018-02-12T00:40:31.470Z,0
2018-02-12T00:41:31.230Z,0
2018-02-12T00:42:31.246Z,0
2018-02-12T00:43:31.257Z,0
2018-02-12T00:44:31.017Z,0
2018-02-12T00:45:31.275Z,0
2018-02-12T00:46:31.543Z,0
2018-02-12T00:47:31.052Z,0
2018-02-12T00:48:30.580Z,0
2018-02-12T00:49:31.078Z,0
2018-02-12T00:50:31.089Z,0
2018-02-12T00:51:31.358Z,0
2018-02-12T00:52:30.870Z,0
2018-02-12T00:53:31.422Z,0
2018-02-12T00:54:31.135Z,0
2018-02-12T00:55:30.896Z,0
2018-02-12T00:56:31.412Z,0
2018-02-12T00:57:31.425Z,0
2018-02-12T00:58:31.703Z,0
2018-02-12T00:59:31.222Z,0
2018-02-12T01:00:30.963Z,0
2018-02-12T01:01:31.223Z,0
2018-02-12T01:02:31.493Z,0
2018-02-12T01:03:30.993Z,0
2018-02-12T01:04:31.021Z,0
2018-02-12T01:05:31.032Z,0
2018-02-12T01:06:31.032Z,0
2018-02-12T01:07:31.298Z,0
2018-02-12T01:08:31.332Z,0
2018-02-12T01:09:31.077Z,0
2018-02-12T01:10:31.084Z,0
2018-02-12T01:11:31.602Z,0
2018-02-12T01:12:31.111Z,0
2018-02-12T01:13:31.627Z,0
2018-02-12T01:14:31.638Z,0
2018-02-12T01:15:31.660Z,0
2018-02-12T01:16:31.910Z,0
2018-02-12T01:17:31.927Z,0
2018-02-12T01:18:31.187Z,0
2018-02-12T01:19:31.460Z,0
2018-02-12T01:20:30.961Z,0
2018-02-12T01:21:31.728Z,0
2018-02-12T01:22:31.485Z,0
2018-02-12T01:23:31.008Z,0
2018-02-12T01:24:31.784Z,0
2018-02-12T01:25:32.030Z,0
2018-02-12T01:26:31.785Z,0
2018-02-12T01:27:31.335Z,0
2018-02-12T01:28:31.821Z,0
2018-02-12T01:29:31.576Z,0
2018-02-12T01:30:31.340Z,0
2018-02-12T01:31:31.350Z,0
2018-02-12T01:32:31.863Z,0
2018-02-12T01:33:31.874Z,0
2018-02-12T01:34:31.651Z,0
2018-02-12T01:35:31.656Z,0
2018-02-12T01:36:31.419Z,0
2018-02-12T01:37:31.692Z,0
2018-02-12T01:38:31.938Z,0
2018-02-12T01:39:31.703Z,0
2018-02-12T01:40:31.472Z,0
2018-02-12T01:41:31.222Z,0
2018-02-12T01:42:31.515Z,0
2018-02-12T01:43:32.026Z,0
2018-02-12T01:44:31.767Z,0
2018-02-12T01:45:31.834Z,0
2018-02-12T01:46:32.052Z,0
2018-02-12T01:47:32.063Z,0
2018-02-12T01:48:32.126Z,0
2018-02-12T01:49:32.331Z,0
2018-02-12T01:50:32.088Z,0
2018-02-12T01:51:31.601Z,0
2018-02-12T01:52:31.862Z,0
2018-02-12T01:53:31.895Z,0
2018-02-12T01:54:31.934Z,0
2018-02-12T01:55:31.895Z,0
2018-02-12T01:56:32.157Z,0
2018-02-12T01:57:31.674Z,0
2018-02-12T01:58:32.444Z,0
2018-02-12T01:59:31.943Z,0
2018-02-12T02:00:31.721Z,0
2018-02-12T02:01:31.728Z,0
2018-02-12T02:02:31.993Z,0
2018-02-12T02:03:32.269Z,0
2018-02-12T02:04:32.032Z,0
2018-02-12T02:05:32.029Z,0
2018-02-12T02:06:32.295Z,0
2018-02-12T02:07:32.325Z,0
2018-02-12T02:08:32.329Z,0
2018-02-12T02:09:32.340Z,0
2018-02-12T02:10:32.092Z,0
2018-02-12T02:11:31.861Z,0
2018-02-12T02:12:32.369Z,0
2018-02-12T02:13:32.137Z,0
2018-02-12T02:14:31.895Z,0
2018-02-12T02:15:31.652Z,0
2018-02-12T02:16:32.413Z,0
2018-02-12T02:17:32.187Z,0
2018-02-12T02:18:32.198Z,0
2018-02-12T02:19:32.462Z,0
2018-02-12T02:20:32.229Z,0
2018-02-12T02:21:32.685Z,0
2018-02-12T02:22:32.245Z,0
2018-02-12T02:23:32.509Z,0
2018-02-12T02:24:32.776Z,0
2018-02-12T02:25:32.791Z,0
2018-02-12T02:26:32.043Z,0
2018-02-12T02:27:32.570Z,0
2018-02-12T02:28:32.879Z,0
2018-02-12T02:29:32.085Z,0
2018-02-12T02:30:32.356Z,0
2018-02-12T02:31:32.630Z,0
2018-02-12T02:32:32.625Z,0
2018-02-12T02:33:32.740Z,0
2018-02-12T02:34:32.156Z,0
2018-02-12T02:35:32.685Z,0
2018-02-12T02:36:32.670Z,0
2018-02-12T02:37:32.690Z,0
2018-02-12T02:38:32.464Z,0
2018-02-12T02:39:32.462Z,0
2018-02-12T02:40:32.476Z,0
2018-02-12T02:41:32.258Z,0
2018-02-12T02:42:33.003Z,0
2018-02-12T02:43:32.772Z,0
2018-02-12T02:44:32.027Z,0
2018-02-12T02:45:33.043Z,0
2018-02-12T02:46:32.552Z,0
2018-02-12T02:47:32.832Z,0
2018-02-12T02:48:32.070Z,0
2018-02-12T02:49:32.838Z,0
2018-02-12T02:50:32.623Z,0
2018-02-12T02:51:32.640Z,0
2018-02-12T02:52:32.631Z,0
2018-02-12T02:53:32.386Z,0
2018-02-12T02:54:33.147Z,0
2018-02-12T02:55:32.661Z,0
2018-02-12T02:56:33.182Z,0
2018-02-12T02:57:32.947Z,0
2018-02-12T02:58:32.453Z,0
2018-02-12T02:59:32.976Z,0
2018-02-12T03:00:32.985Z,0
2018-02-12T03:01:32.528Z,0
2018-02-12T03:02:33.003Z,0
2018-02-12T03:03:32.783Z,0
2018-02-12T03:04:32.819Z,0
2018-02-12T03:05:32.804Z,0
2018-02-12T03:06:32.303Z,0
2018-02-12T03:07:33.324Z,0
2018-02-12T03:08:32.828Z,0
2018-02-12T03:09:32.849Z,0
2018-02-12T03:10:33.121Z,0
2018-02-12T03:11:33.135Z,0
2018-02-12T03:12:32.885Z,0
2018-02-12T03:13:33.390Z,0
2018-02-12T03:14:32.906Z,0
2018-02-12T03:15:33.172Z,0
2018-02-12T03:16:32.687Z,0
2018-02-12T03:17:32.690Z,0
2018-02-12T03:18:33.205Z,0
2018-02-12T03:19:33.222Z,0
2018-02-12T03:20:33.482Z,0
2018-02-12T03:21:32.991Z,0
2018-02-12T03:22:33.009Z,0
2018-02-12T03:23:33.020Z,0
2018-02-12T03:24:33.033Z,0
2018-02-12T03:25:33.055Z,0
2018-02-12T03:26:33.061Z,0
2018-02-12T03:27:33.329Z,0
2018-02-12T03:28:33.080Z,0
2018-02-12T03:29:33.400Z,0
2018-02-12T03:30:33.169Z,0
2018-02-12T03:31:33.385Z,0
2018-02-12T03:32:32.639Z,0
2018-02-12T03:33:32.898Z,0
2018-02-12T03:34:33.163Z,0
2018-02-12T03:35:33.435Z,0
2018-02-12T03:36:48.121Z,0
2018-02-12T03:37:33.456Z,0
2018-02-12T03:38:33.471Z,0
2018-02-12T03:39:32.982Z,0
2018-02-12T03:40:32.988Z,0
2018-02-12T03:41:33.501Z,0
2018-02-12T03:42:33.265Z,0
2018-02-12T03:43:33.046Z,0
2018-02-12T03:44:33.537Z,0
2018-02-12T03:45:32.813Z,0
2018-02-12T03:46:33.827Z,0
2018-02-12T03:47:33.333Z,0
2018-02-12T03:48:33.096Z,0
2018-02-12T03:49:33.122Z,0
2018-02-12T03:50:33.122Z,0
2018-02-12T03:51:33.628Z,0
2018-02-12T03:52:33.417Z,0
2018-02-12T03:53:33.176Z,0
2018-02-12T03:54:33.169Z,0
2018-02-12T03:55:33.686Z,0
2018-02-12T03:56:33.450Z,0
2018-02-12T03:57:33.728Z,0
2018-02-12T03:58:33.980Z,0
2018-02-12T03:59:33.740Z,0
2018-02-12T04:00:33.758Z,0
2018-02-12T04:01:34.023Z,0
2018-02-12T04:02:33.283Z,0
2018-02-12T04:03:33.795Z,0
2018-02-12T04:04:33.302Z,0
2018-02-12T04:05:33.571Z,0
2018-02-12T04:06:33.580Z,0
2018-02-12T04:07:33.611Z,0
2018-02-12T04:08:34.111Z,0
2018-02-12T04:09:33.631Z,0
2018-02-12T04:10:33.380Z,0
2018-02-12T04:11:34.169Z,0
2018-02-12T04:12:33.915Z,0
2018-02-12T04:13:33.684Z,0
2018-02-12T04:14:33.691Z,0
2018-02-12T04:15:33.942Z,0
2018-02-12T04:16:33.706Z,0
2018-02-12T04:17:33.972Z,0
2018-02-12T04:18:33.746Z,0
2018-02-12T04:19:33.244Z,0
2018-02-12T04:20:34.030Z,0
2018-02-12T04:21:33.801Z,0
2018-02-12T04:22:33.790Z,0
2018-02-12T04:23:34.315Z,0
2018-02-12T04:24:33.569Z,0
2018-02-12T04:25:33.579Z,0
2018-02-12T04:26:34.112Z,0
2018-02-12T04:27:33.853Z,0
2018-02-12T04:28:33.904Z,0
2018-02-12T04:29:34.159Z,0
2018-02-12T04:30:34.149Z,0
2018-02-12T04:31:34.464Z,0
2018-02-12T04:32:34.423Z,0
2018-02-12T04:33:33.929Z,0
2018-02-12T04:34:34.000Z,0
2018-02-12T04:35:34.225Z,0
2018-02-12T04:36:34.270Z,0
2018-02-12T04:37:33.982Z,0
2018-02-12T04:38:34.008Z,0
2018-02-12T04:39:34.029Z,0
2018-02-12T04:40:33.772Z,0
2018-02-12T04:41:34.291Z,0
2018-02-12T04:42:34.051Z,0
2018-02-12T04:43:34.063Z,0
2018-02-12T04:44:34.330Z,0
2018-02-12T04:45:34.095Z,0
2018-02-12T04:46:33.846Z,0
2018-02-12T04:47:34.111Z,0
2018-02-12T04:48:34.402Z,0
2018-02-12T04:49:34.143Z,0
2018-02-12T04:50:34.607Z,0
2018-02-12T04:51:34.459Z,0
2018-02-12T04:52:34.433Z,0
2018-02-12T04:53:34.194Z,0
2018-02-12T04:54:34.207Z,0
2018-02-12T04:55:33.973Z,0
2018-02-12T04:56:34.489Z,0
2018-02-12T04:57:34.247Z,0
2018-02-12T04:58:34.514Z,0
2018-02-12T04:59:34.271Z,0
2018-02-12T05:00:34.537Z,0
2018-02-12T05:01:34.549Z,0
2018-02-12T05:02:34.560Z,0
2018-02-12T05:03:34.837Z,0
2018-02-12T05:04:34.096Z,0
2018-02-12T05:05:34.353Z,0
2018-02-12T05:06:34.616Z,0
2018-02-12T05:07:34.381Z,0
2018-02-12T05:08:34.404Z,0
2018-02-12T05:09:34.660Z,0
2018-02-12T05:10:34.922Z,0
2018-02-12T05:11:34.429Z,0
2018-02-12T05:12:34.549Z,0
2018-02-12T05:13:34.973Z,0
2018-02-12T05:14:34.719Z,0
2018-02-12T05:15:34.737Z,0
2018-02-12T05:16:34.496Z,0
2018-02-12T05:17:34.767Z,0
2018-02-12T05:18:34.529Z,0
2018-02-12T05:19:34.297Z,0
2018-02-12T05:20:34.809Z,0
2018-02-12T05:21:34.581Z,0
2018-02-12T05:22:34.835Z,0
2018-02-12T05:23:34.594Z,0
2018-02-12T05:24:34.856Z,0
2018-02-12T05:25:34.622Z,0
2018-02-12T05:26:34.631Z,0
2018-02-12T05:27:49.568Z,0
2018-02-12T05:28:34.908Z,0
2018-02-12T05:29:34.918Z,0
2018-02-12T05:30:34.932Z,0
2018-02-12T05:31:34.952Z,0
2018-02-12T05:32:35.057Z,0
2018-02-12T05:33:34.734Z,0
2018-02-12T05:34:35.002Z,0
2018-02-12T05:35:35.000Z,0
2018-02-12T05:36:34.768Z,0
2018-02-12T05:37:35.284Z,0
2018-02-12T05:38:35.040Z,0
2018-02-12T05:39:35.059Z,0
2018-02-12T05:40:35.328Z,0
2018-02-12T05:41:35.330Z,0
2018-02-12T05:42:34.851Z,0
2018-02-12T05:43:35.391Z,0
2018-02-12T05:44:35.367Z,0
2018-02-12T05:45:35.144Z,0
2018-02-12T05:46:34.640Z,0
2018-02-12T05:47:35.411Z,0
2018-02-12T05:48:35.167Z,0
2018-02-12T05:49:35.458Z,0
2018-02-12T05:50:35.451Z,0
2018-02-12T05:51:35.209Z,0
2018-02-12T05:52:35.220Z,0
2018-02-12T05:53:35.236Z,0
2018-02-12T05:54:35.013Z,0
2018-02-12T05:55:35.266Z,0
2018-02-12T05:56:35.276Z,0
2018-02-12T05:57:34.781Z,0
2018-02-12T05:58:35.064Z,0
2018-02-12T05:59:35.317Z,0
2018-02-12T06:00:35.592Z,0
2018-02-12T06:01:35.096Z,0
2018-02-12T06:02:35.355Z,0
2018-02-12T06:03:35.109Z,0
2018-02-12T06:04:35.374Z,0
2018-02-12T06:05:35.643Z,0
2018-02-12T06:06:35.405Z,0
2018-02-12T06:07:35.464Z,0
2018-02-12T06:08:35.685Z,0
2018-02-12T06:09:35.475Z,0
2018-02-12T06:10:35.456Z,0
2018-02-12T06:11:35.477Z,0
2018-02-12T06:12:35.488Z,0
2018-02-12T06:13:35.244Z,0
2018-02-12T06:14:35.516Z,0
2018-02-12T06:15:35.525Z,0
2018-02-12T06:16:34.775Z,0
2018-02-12T06:17:35.546Z,0
2018-02-12T06:18:35.572Z,0
2018-02-12T06:19:35.573Z,0
2018-02-12T06:20:35.633Z,0
2018-02-12T06:21:35.845Z,0
2018-02-12T06:22:35.386Z,0
2018-02-12T06:23:35.131Z,0
2018-02-12T06:24:35.386Z,0
2018-02-12T06:25:35.465Z,0
2018-02-12T06:26:35.928Z,0
2018-02-12T06:27:35.676Z,0
2018-02-12T06:28:35.696Z,0
2018-02-12T06:29:35.196Z,0
2018-02-12T06:30:35.974Z,0
2018-02-12T06:31:35.484Z,0
2018-02-12T06:32:35.762Z,0
2018-02-12T06:33:35.502Z,0
2018-02-12T06:34:35.511Z,0
2018-02-12T06:35:35.275Z,0
2018-02-12T06:36:36.053Z,0
2018-02-12T06:37:35.316Z,0
2018-02-12T06:38:35.566Z,0
2018-02-12T06:39:35.831Z,0
2018-02-12T06:40:35.842Z,0
2018-02-12T06:41:35.599Z,5
2018-02-12T06:42:36.115Z,5
2018-02-12T06:43:35.633Z,5
2018-02-12T06:44:35.396Z,5
2018-02-12T06:45:35.900Z,5
2018-02-12T06:46:36.166Z,5
2018-02-12T06:47:35.672Z,10
2018-02-12T06:48:35.683Z,10
2018-02-12T06:49:35.951Z,10
2018-02-12T06:50:36.213Z,10
2018-02-12T06:51:35.727Z,10
2018-02-12T06:52:35.488Z,10
2018-02-12T06:53:35.818Z,10
2018-02-12T06:54:35.760Z,10
2018-02-12T06:55:35.525Z,10
2018-02-12T06:56:35.791Z,15
2018-02-12T06:57:35.550Z,15
2018-02-12T06:58:35.576Z,15
2018-02-12T06:59:35.325Z,15
2018-02-12T07:00:35.607Z,15
2018-02-12T07:01:36.115Z,15
2018-02-12T07:02:35.877Z,15
2018-02-12T07:03:36.375Z,15
2018-02-12T07:04:36.394Z,15
2018-02-12T07:05:36.405Z,20
2018-02-12T07:06:36.170Z,20
2018-02-12T07:07:35.674Z,20
2018-02-12T07:08:36.146Z,20
2018-02-12T07:09:36.210Z,20
2018-02-12T07:10:36.222Z,20
2018-02-12T07:11:36.247Z,20
2018-02-12T07:12:36.052Z,25
2018-02-12T07:13:36.254Z,25
2018-02-12T07:14:36.313Z,25
2018-02-12T07:15:36.291Z,25
2018-02-12T07:16:36.301Z,25
2018-02-12T07:17:35.814Z,25
2018-02-12T07:18:36.078Z,25
2018-02-12T07:19:36.082Z,25
2018-02-12T07:20:36.152Z,25
2018-02-12T07:21:36.380Z,25
2018-02-12T07:22:36.386Z,25
2018-02-12T07:23:36.142Z,25
2018-02-12T07:24:36.406Z,25
2018-02-12T07:25:36.160Z,25
2018-02-12T07:26:36.422Z,25
2018-02-12T07:27:36.184Z,25
2018-02-12T07:28:36.202Z,25
2018-02-12T07:29:36.205Z,25
2018-02-12T07:30:36.222Z,30
2018-02-12T07:31:36.499Z,30
2018-02-12T07:32:36.247Z,30
2018-02-12T07:33:36.513Z,35
2018-02-12T07:34:36.021Z,35
2018-02-12T07:35:36.557Z,35
2018-02-12T07:36:36.040Z,35
2018-02-12T07:37:36.551Z,40
2018-02-12T07:38:36.324Z,40
2018-02-12T07:39:36.333Z,45
2018-02-12T07:40:36.599Z,45
2018-02-12T07:41:36.625Z,50
2018-02-12T07:42:36.624Z,55
2018-02-12T07:43:36.381Z,55
2018-02-12T07:44:36.390Z,60
2018-02-12T07:45:36.410Z,65
2018-02-12T07:46:36.416Z,70
2018-02-12T07:47:36.179Z,75
2018-02-12T07:48:36.446Z,75
2018-02-12T07:49:36.709Z,80
2018-02-12T07:50:36.472Z,85
2018-02-12T07:51:36.242Z,90
2018-02-12T07:52:36.744Z,90
2018-02-12T07:53:36.493Z,90
2018-02-12T07:54:36.764Z,90
2018-02-12T07:55:51.206Z,90
2018-02-12T07:56:36.557Z,90
2018-02-12T07:57:36.556Z,90
2018-02-12T07:58:36.317Z,85
2018-02-12T07:59:36.590Z,85
2018-02-12T08:00:36.664Z,85
2018-02-12T08:01:36.614Z,85
2018-02-12T08:02:36.624Z,85
2018-02-12T08:03:36.896Z,85
2018-02-12T08:04:36.916Z,85
2018-02-12T08:05:36.929Z,90
2018-02-12T08:06:36.933Z,95
2018-02-12T08:07:36.943Z,100
2018-02-12T08:08:36.959Z,105
2018-02-12T08:09:36.968Z,110
2018-02-12T08:10:36.977Z,115
2018-02-12T08:11:36.985Z,120
2018-02-12T08:12:36.504Z,120
2018-02-12T08:13:36.508Z,120
2018-02-12T08:14:37.104Z,120
2018-02-12T08:15:37.050Z,115
2018-02-12T08:16:37.061Z,120
2018-02-12T08:17:37.326Z,120
2018-02-12T08:18:37.170Z,120
2018-02-12T08:19:37.094Z,125
2018-02-12T08:20:37.111Z,125
2018-02-12T08:21:36.870Z,130
2018-02-12T08:22:37.132Z,135
2018-02-12T08:23:37.184Z,135
2018-02-12T08:24:37.425Z,135
2018-02-12T08:25:36.927Z,135
2018-02-12T08:26:36.683Z,135
2018-02-12T08:27:36.972Z,135
2018-02-12T08:28:36.704Z,135
2018-02-12T08:29:36.724Z,140
2018-02-12T08:30:36.730Z,140
2018-02-12T08:31:37.192Z,140
2018-02-12T08:32:37.257Z,145
2018-02-12T08:33:37.032Z,145
2018-02-12T08:34:37.047Z,150
2018-02-12T08:35:37.335Z,155
2018-02-12T08:36:37.312Z,150
2018-02-12T08:37:36.841Z,145
2018-02-12T08:38:36.842Z,150
2018-02-12T08:39:37.103Z,165
2018-02-12T08:40:37.106Z,170
2018-02-12T08:41:37.386Z,165
2018-02-12T08:42:37.404Z,165
2018-02-12T08:43:37.157Z,155
2018-02-12T08:44:36.663Z,165
2018-02-12T08:45:37.182Z,165
2018-02-12T08:46:37.445Z,155
2018-02-12T08:47:37.470Z,160
2018-02-12T08:48:37.491Z,150
2018-02-12T08:49:36.982Z,170
2018-02-12T08:50:36.998Z,165
2018-02-12T08:51:37.523Z,200
2018-02-12T08:52:37.780Z,195
2018-02-12T08:53:37.283Z,195
2018-02-12T08:54:37.548Z,190
2018-02-12T08:55:37.689Z,195
2018-02-12T08:56:37.069Z,195
2018-02-12T08:57:37.086Z,200
2018-02-12T08:58:37.350Z,215
2018-02-12T08:59:37.609Z,215
2018-02-12T09:00:37.375Z,215
2018-02-12T09:01:37.148Z,210
2018-02-12T09:02:37.402Z,225
2018-02-12T09:03:37.160Z,235
2018-02-12T09:04:37.431Z,225
2018-02-12T09:05:37.439Z,235
2018-02-12T09:06:37.704Z,240
2018-02-12T09:07:37.729Z,220
2018-02-12T09:08:37.485Z,255
2018-02-12T09:09:37.995Z,265
2018-02-12T09:10:37.521Z,265
2018-02-12T09:11:37.770Z,285
2018-02-12T09:12:37.811Z,295
2018-02-12T09:13:37.543Z,295
2018-02-12T09:14:37.817Z,310
2018-02-12T09:15:37.821Z,310
2018-02-12T09:16:37.845Z,290
2018-02-12T09:17:37.852Z,260
2018-02-12T09:18:37.909Z,240
2018-02-12T09:19:37.623Z,235
2018-02-12T09:20:37.387Z,250
2018-02-12T09:21:37.649Z,255
2018-02-12T09:22:37.693Z,270
2018-02-12T09:23:37.954Z,265
2018-02-12T09:24:37.968Z,275
2018-02-12T09:25:37.960Z,280
2018-02-12T09:26:37.968Z,285
2018-02-12T09:27:37.999Z,265
2018-02-12T09:28:37.991Z,270
2018-02-12T09:29:38.278Z,280
2018-02-12T09:30:37.521Z,285
2018-02-12T09:31:37.787Z,260
2018-02-12T09:32:37.549Z,270
2018-02-12T09:33:37.577Z,280
2018-02-12T09:34:38.073Z,265
2018-02-12T09:35:37.842Z,265
2018-02-12T09:36:37.856Z,320
2018-02-12T09:37:37.866Z,360
2018-02-12T09:38:38.408Z,370
2018-02-12T09:39:37.901Z,355
2018-02-12T09:40:37.736Z,370
2018-02-12T09:41:37.959Z,335
2018-02-12T09:42:37.688Z,270
2018-02-12T09:43:37.959Z,300
2018-02-12T09:44:37.961Z,405
2018-02-12T09:45:38.232Z,410
2018-02-12T09:46:38.595Z,335
2018-02-12T09:47:38.351Z,340
2018-02-12T09:48:38.014Z,420
2018-02-12T09:49:37.779Z,370
2018-02-12T09:50:38.095Z,265
2018-02-12T09:51:38.570Z,170
2018-02-12T09:52:38.113Z,165
2018-02-12T09:53:38.293Z,175
2018-02-12T09:54:38.120Z,170
2018-02-12T09:55:38.122Z,160
2018-02-12T09:56:38.389Z,155
2018-02-12T09:57:38.136Z,155
2018-02-12T09:58:38.156Z,165
2018-02-12T09:59:37.664Z,175
2018-02-12T10:00:38.196Z,190
2018-02-12T10:01:37.943Z,195
2018-02-12T10:02:38.460Z,200
2018-02-12T10:03:38.519Z,180
2018-02-12T10:04:38.496Z,175
2018-02-12T10:05:38.513Z,180
2018-02-12T10:06:38.269Z,205
2018-02-12T10:07:38.583Z,245
2018-02-12T10:08:38.309Z,260
2018-02-12T10:09:38.559Z,355
2018-02-12T10:10:38.066Z,290
2018-02-12T10:11:38.584Z,325
2018-02-12T10:12:38.603Z,305
2018-02-12T10:13:38.369Z,235
2018-02-12T10:14:38.372Z,320
2018-02-12T10:15:38.411Z,305
2018-02-12T10:16:38.396Z,310
2018-02-12T10:17:38.683Z,375
2018-02-12T10:18:38.153Z,705
2018-02-12T10:19:38.681Z,1065
2018-02-12T10:20:38.516Z,1105
2018-02-12T10:21:38.449Z,1145
2018-02-12T10:22:38.481Z,1180
2018-02-12T10:23:38.502Z,1140
2018-02-12T10:24:39.034Z,1130
2018-02-12T10:25:39.032Z,1110
2018-02-12T10:26:38.551Z,1235
2018-02-12T10:27:38.810Z,1415
2018-02-12T10:28:38.575Z,1600
2018-02-12T10:29:38.867Z,1315
2018-02-12T10:30:38.610Z,1260
2018-02-12T10:31:38.873Z,1225
2018-02-12T10:32:39.136Z,1140
2018-02-12T10:33:38.901Z,955
2018-02-12T10:34:38.680Z,920
2018-02-12T10:35:38.687Z,1120
2018-02-12T10:36:38.701Z,1150
2018-02-12T10:37:38.527Z,1080
2018-02-12T10:38:38.992Z,1285
2018-02-12T10:39:39.001Z,1090
2018-02-12T10:40:39.036Z,795
2018-02-12T10:41:39.069Z,760
2018-02-12T10:42:38.612Z,450
2018-02-12T10:43:38.337Z,460
2018-02-12T10:44:38.351Z,615
2018-02-12T10:45:38.623Z,445
2018-02-12T10:46:38.880Z,855
2018-02-12T10:47:39.156Z,810
2018-02-12T10:48:38.666Z,500
2018-02-12T10:49:39.213Z,460
2018-02-12T10:50:39.207Z,390
2018-02-12T10:51:39.225Z,435
2018-02-12T10:52:39.014Z,530
2018-02-12T10:53:39.021Z,460
2018-02-12T10:54:39.289Z,505
2018-02-12T10:55:38.806Z,560
2018-02-12T10:56:38.835Z,640
2018-02-12T10:57:39.341Z,790
2018-02-12T10:58:39.098Z,800
2018-02-12T10:59:39.375Z,555
2018-02-12T11:00:39.389Z,275
2018-02-12T11:01:39.202Z,160
2018-02-12T11:02:39.770Z,665
2018-02-12T11:03:39.501Z,310
2018-02-12T11:04:39.205Z,340
2018-02-12T11:05:39.463Z,640
2018-02-12T11:06:39.251Z,385
2018-02-12T11:07:39.265Z,315
2018-02-12T11:08:39.028Z,325
2018-02-12T11:09:39.289Z,340
2018-02-12T11:10:39.053Z,330
2018-02-12T11:11:39.572Z,275
2018-02-12T11:12:39.592Z,260
2018-02-12T11:13:39.605Z,265
2018-02-12T11:14:39.634Z,290
2018-02-12T11:15:39.132Z,290
2018-02-12T11:16:39.427Z,290
2018-02-12T11:17:39.669Z,305
2018-02-12T11:18:39.696Z,355
2018-02-12T11:19:39.728Z,535
2018-02-12T11:20:39.214Z,385
2018-02-12T11:21:39.487Z,320
2018-02-12T11:22:38.995Z,290
2018-02-12T11:23:39.515Z,300
2018-02-12T11:24:39.775Z,375
2018-02-12T11:25:39.543Z,940
2018-02-12T11:26:39.557Z,1005
2018-02-12T11:27:39.325Z,1430
2018-02-12T11:28:39.870Z,1510
2018-02-12T11:29:39.612Z,1460
2018-02-12T11:30:39.374Z,1500
2018-02-12T11:31:39.648Z,1405
2018-02-12T11:32:39.405Z,1640
2018-02-12T11:33:40.021Z,1670
2018-02-12T11:34:39.995Z,1425
2018-02-12T11:35:40.230Z,1495
2018-02-12T11:36:39.980Z,1450
2018-02-12T11:37:39.496Z,1575
2018-02-12T11:38:39.761Z,1405
2018-02-12T11:39:39.533Z,1405
2018-02-12T11:40:39.826Z,1465
2018-02-12T11:41:40.330Z,1740
2018-02-12T11:42:39.341Z,560
2018-02-12T11:43:39.858Z,485
2018-02-12T11:44:39.881Z,440
2018-02-12T11:45:39.912Z,375
2018-02-12T11:46:39.921Z,330
2018-02-12T11:47:39.950Z,300
2018-02-12T11:48:39.715Z,290
2018-02-12T11:49:40.483Z,280
2018-02-12T11:50:39.759Z,305
2018-02-12T11:51:40.025Z,360
2018-02-12T11:52:40.601Z,375
2018-02-12T11:53:40.053Z,470
2018-02-12T11:54:40.070Z,860
2018-02-12T11:55:40.341Z,1135
2018-02-12T11:56:40.615Z,1175
2018-02-12T11:57:40.121Z,1095
2018-02-12T11:58:40.133Z,1080
2018-02-12T11:59:39.654Z,1195
2018-02-12T12:00:40.430Z,1150
2018-02-12T12:01:40.205Z,1235
2018-02-12T12:02:40.238Z,1240
2018-02-12T12:03:39.744Z,1325
2018-02-12T12:04:40.512Z,1160
2018-02-12T12:05:40.024Z,1235
2018-02-12T12:06:40.055Z,1415
2018-02-12T12:07:40.814Z,1230
2018-02-12T12:08:40.091Z,1220
2018-02-12T12:09:40.343Z,1150
2018-02-12T12:10:40.648Z,1215
2018-02-12T12:11:39.902Z,1270
2018-02-12T12:12:40.664Z,1305
2018-02-12T12:13:40.684Z,1325
2018-02-12T12:14:40.706Z,1175
2018-02-12T12:15:40.723Z,1115
2018-02-12T12:16:40.493Z,1175
2018-02-12T12:17:40.527Z,1470
2018-02-12T12:18:40.527Z,1495
2018-02-12T12:19:40.870Z,1430
2018-02-12T12:20:40.838Z,1565
2018-02-12T12:21:40.848Z,1410
2018-02-12T12:22:40.382Z,1405
2018-02-12T12:23:40.894Z,1365
2018-02-12T12:24:40.911Z,1205
2018-02-12T12:25:40.174Z,1240
2018-02-12T12:26:40.968Z,1235
2018-02-12T12:27:40.727Z,1495
2018-02-12T12:28:40.747Z,1685
2018-02-12T12:29:41.027Z,1575
2018-02-12T12:30:41.042Z,895
2018-02-12T12:31:41.312Z,1915
2018-02-12T12:32:40.844Z,2130
2018-02-12T12:33:40.864Z,1135
2018-02-12T12:34:40.877Z,1580
2018-02-12T12:35:40.954Z,1580
2018-02-12T12:36:41.180Z,1650
2018-02-12T12:37:40.957Z,670
2018-02-12T12:38:40.968Z,505
2018-02-12T12:39:40.742Z,1870
2018-02-12T12:40:41.067Z,1005
2018-02-12T12:41:41.046Z,650
2018-02-12T12:42:41.590Z,540
2018-02-12T12:43:41.051Z,1180
2018-02-12T12:44:41.576Z,1715
2018-02-12T12:45:40.887Z,1980
2018-02-12T12:46:41.156Z,1855
2018-02-12T12:47:41.188Z,580
2018-02-12T12:48:41.198Z,2555
2018-02-12T12:49:41.239Z,2180
2018-02-12T12:50:40.740Z,2065
2018-02-12T12:51:41.519Z,2145
2018-02-12T12:52:41.552Z,1255
2018-02-12T12:53:41.575Z,2630
2018-02-12T12:54:41.335Z,2605
2018-02-12T12:55:41.116Z,795
2018-02-12T12:56:41.404Z,820
2018-02-12T12:57:40.913Z,405
2018-02-12T12:58:41.940Z,1755
2018-02-12T12:59:41.972Z,335
2018-02-12T13:00:41.733Z,670
2018-02-12T13:01:42.010Z,310
2018-02-12T13:02:41.782Z,410
2018-02-12T13:03:41.820Z,565
2018-02-12T13:04:41.335Z,465
2018-02-12T13:05:41.597Z,335
2018-02-12T13:06:42.111Z,205
2018-02-12T13:07:41.895Z,155
2018-02-12T13:08:41.918Z,135
2018-02-12T13:09:42.188Z,120
2018-02-12T13:10:41.452Z,105
2018-02-12T13:11:41.727Z,90
2018-02-12T13:12:41.749Z,75
2018-02-12T13:13:42.016Z,70
2018-02-12T13:14:42.289Z,65
2018-02-12T13:15:42.059Z,60
2018-02-12T13:16:42.327Z,65
2018-02-12T13:17:41.838Z,70
2018-02-12T13:18:41.858Z,70
2018-02-12T13:19:41.621Z,70
2018-02-12T13:20:42.417Z,70
2018-02-12T13:21:42.414Z,70
2018-02-12T13:22:42.176Z,80
2018-02-12T13:23:41.948Z,100
2018-02-12T13:24:42.207Z,130
2018-02-12T13:25:42.231Z,165
2018-02-12T13:26:41.992Z,190
2018-02-12T13:27:42.009Z,230
2018-02-12T13:28:41.778Z,250
2018-02-12T13:29:42.545Z,280
2018-02-12T13:30:42.593Z,395
2018-02-12T13:31:42.317Z,490
2018-02-12T13:32:42.353Z,465
2018-02-12T13:33:42.106Z,1125
2018-02-12T13:34:42.374Z,1360
2018-02-12T13:35:42.643Z,1995
2018-02-12T13:36:41.905Z,1610
2018-02-12T13:37:42.434Z,1315
2018-02-12T13:38:42.190Z,1535
2018-02-12T13:39:42.240Z,1485
2018-02-12T13:40:42.238Z,1480
2018-02-12T13:41:42.263Z,965
2018-02-12T13:42:42.274Z,430
2018-02-12T13:43:42.287Z,345
2018-02-12T13:44:42.805Z,300
2018-02-12T13:45:42.066Z,275
2018-02-12T13:46:42.337Z,275
2018-02-12T13:47:42.361Z,295
2018-02-12T13:48:42.637Z,330
2018-02-12T13:49:42.659Z,1260
2018-02-12T13:50:42.434Z,1545
2018-02-12T13:51:42.684Z,1800
2018-02-12T13:52:42.461Z,1920
2018-02-12T13:53:42.784Z,1960
2018-02-12T13:54:42.752Z,2180
2018-02-12T13:55:42.794Z,2365
2018-02-12T13:56:42.777Z,1835
2018-02-12T13:57:42.556Z,2645
2018-02-12T13:58:42.573Z,2615
2018-02-12T13:59:42.357Z,2225
2018-02-12T14:00:42.366Z,1260
2018-02-12T14:01:42.403Z,1300
2018-02-12T14:02:42.405Z,1510
2018-02-12T14:03:42.683Z,1105
2018-02-12T14:04:42.445Z,770
2018-02-12T14:05:42.979Z,535
2018-02-12T14:06:42.999Z,470
2018-02-12T14:07:42.772Z,470
2018-02-12T14:08:42.786Z,1110
2018-02-12T14:09:42.588Z,1045
2018-02-12T14:10:42.883Z,790
2018-02-12T14:11:42.599Z,695
2018-02-12T14:12:42.640Z,555
2018-02-12T14:13:43.153Z,530
2018-02-12T14:14:43.167Z,570